sensor_id;sensor_type;location;lat;lon;timestamp;P1;durP1;ratioP1;P2;durP2;ratioP2
23142;SDS011;11740;51.168;4.112;2023-07-29T00:01:56;1.17;;;1.08;;
23142;SDS011;11740;51.168;4.112;2023-07-29T00:04:23;1.63;;;1.27;;
23142;SDS011;11740;51.168;4.112;2023-07-29T00:06:50;2.10;;;1.50;;
23142;SDS011;11740;51.168;4.112;2023-07-29T00:09:17;2.03;;;1.08;;
23142;SDS011;11740;51.168;4.112;2023-07-29T00:11:44;3.17;;;1.30;;
23142;SDS011;11740;51.168;4.112;2023-07-29T00:14:10;3.13;;;1.60;;
23142;SDS011;11740;51.168;4.112;2023-07-29T00:16:37;1.40;;;1.30;;
23142;SDS011;11740;51.168;4.112;2023-07-29T00:19:05;1.27;;;1.17;;
23142;SDS011;11740;51.168;4.112;2023-07-29T00:21:32;2.03;;;1.60;;
23142;SDS011;11740;51.168;4.112;2023-07-29T00:23:59;2.65;;;1.35;;
23142;SDS011;11740;51.168;4.112;2023-07-29T00:26:27;3.20;;;1.42;;
23142;SDS011;11740;51.168;4.112;2023-07-29T00:28:55;3.75;;;1.70;;
23142;SDS011;11740;51.168;4.112;2023-07-29T00:31:22;6.32;;;1.90;;
23142;SDS011;11740;51.168;4.112;2023-07-29T00:33:49;3.25;;;1.63;;
23142;SDS011;11740;51.168;4.112;2023-07-29T00:36:16;2.53;;;1.50;;
23142;SDS011;11740;51.168;4.112;2023-07-29T00:38:43;2.10;;;1.40;;
23142;SDS011;11740;51.168;4.112;2023-07-29T00:41:10;1.40;;;1.30;;
23142;SDS011;11740;51.168;4.112;2023-07-29T00:43:39;2.60;;;1.40;;
23142;SDS011;11740;51.168;4.112;2023-07-29T00:46:07;3.08;;;1.70;;
23142;SDS011;11740;51.168;4.112;2023-07-29T00:48:36;3.25;;;1.45;;
23142;SDS011;11740;51.168;4.112;2023-07-29T00:51:03;2.40;;;1.50;;
23142;SDS011;11740;51.168;4.112;2023-07-29T00:53:30;3.42;;;1.50;;
23142;SDS011;11740;51.168;4.112;2023-07-29T00:55:57;2.78;;;1.42;;
23142;SDS011;11740;51.168;4.112;2023-07-29T00:58:24;2.90;;;1.45;;
23142;SDS011;11740;51.168;4.112;2023-07-29T01:00:51;2.90;;;1.42;;
23142;SDS011;11740;51.168;4.112;2023-07-29T01:03:20;3.05;;;1.40;;
23142;SDS011;11740;51.168;4.112;2023-07-29T01:05:54;2.42;;;1.50;;
23142;SDS011;11740;51.168;4.112;2023-07-29T01:09:17;2.00;;;1.30;;
23142;SDS011;11740;51.168;4.112;2023-07-29T01:15:05;2.42;;;1.45;;
23142;SDS011;11740;51.168;4.112;2023-07-29T01:17:42;1.58;;;1.25;;
23142;SDS011;11740;51.168;4.112;2023-07-29T01:20:15;1.92;;;1.70;;
23142;SDS011;11740;51.168;4.112;2023-07-29T01:22:43;1.90;;;1.52;;
23142;SDS011;11740;51.168;4.112;2023-07-29T01:25:10;4.88;;;1.83;;
23142;SDS011;11740;51.168;4.112;2023-07-29T01:27:37;1.80;;;1.60;;
23142;SDS011;11740;51.168;4.112;2023-07-29T01:30:05;3.15;;;1.60;;
23142;SDS011;11740;51.168;4.112;2023-07-29T01:32:37;1.88;;;1.60;;
23142;SDS011;11740;51.168;4.112;2023-07-29T01:35:27;2.35;;;1.60;;
23142;SDS011;11740;51.168;4.112;2023-07-29T01:38:05;2.53;;;1.60;;
23142;SDS011;11740;51.168;4.112;2023-07-29T01:40:39;4.72;;;1.90;;
23142;SDS011;11740;51.168;4.112;2023-07-29T01:43:07;3.08;;;1.60;;
23142;SDS011;11740;51.168;4.112;2023-07-29T01:45:35;3.25;;;1.40;;
23142;SDS011;11740;51.168;4.112;2023-07-29T01:48:04;2.08;;;1.60;;
23142;SDS011;11740;51.168;4.112;2023-07-29T01:50:32;3.22;;;1.80;;
23142;SDS011;11740;51.168;4.112;2023-07-29T01:53:00;2.42;;;1.70;;
23142;SDS011;11740;51.168;4.112;2023-07-29T01:55:28;2.47;;;1.80;;
23142;SDS011;11740;51.168;4.112;2023-07-29T01:57:55;4.30;;;1.80;;
23142;SDS011;11740;51.168;4.112;2023-07-29T02:00:22;2.35;;;1.70;;
23142;SDS011;11740;51.168;4.112;2023-07-29T02:02:49;4.88;;;1.88;;
23142;SDS011;11740;51.168;4.112;2023-07-29T02:05:16;2.95;;;1.70;;
23142;SDS011;11740;51.168;4.112;2023-07-29T02:07:43;2.75;;;1.85;;
23142;SDS011;11740;51.168;4.112;2023-07-29T02:10:10;3.88;;;1.77;;
23142;SDS011;11740;51.168;4.112;2023-07-29T02:12:37;1.77;;;1.67;;
23142;SDS011;11740;51.168;4.112;2023-07-29T02:15:04;3.00;;;1.70;;
23142;SDS011;11740;51.168;4.112;2023-07-29T02:17:31;2.40;;;1.77;;
23142;SDS011;11740;51.168;4.112;2023-07-29T02:19:58;4.30;;;2.00;;
23142;SDS011;11740;51.168;4.112;2023-07-29T02:22:25;1.90;;;1.55;;
23142;SDS011;11740;51.168;4.112;2023-07-29T02:24:52;3.33;;;1.90;;
23142;SDS011;11740;51.168;4.112;2023-07-29T02:27:19;3.00;;;1.77;;
23142;SDS011;11740;51.168;4.112;2023-07-29T02:29:46;2.05;;;1.65;;
23142;SDS011;11740;51.168;4.112;2023-07-29T02:32:13;3.55;;;2.10;;
23142;SDS011;11740;51.168;4.112;2023-07-29T02:34:40;2.13;;;1.60;;
23142;SDS011;11740;51.168;4.112;2023-07-29T02:37:07;2.83;;;1.70;;
23142;SDS011;11740;51.168;4.112;2023-07-29T02:39:34;2.28;;;1.95;;
23142;SDS011;11740;51.168;4.112;2023-07-29T02:42:01;2.55;;;1.55;;
23142;SDS011;11740;51.168;4.112;2023-07-29T02:44:28;2.28;;;1.70;;
23142;SDS011;11740;51.168;4.112;2023-07-29T02:46:55;3.33;;;1.60;;
23142;SDS011;11740;51.168;4.112;2023-07-29T02:49:22;1.95;;;1.75;;
23142;SDS011;11740;51.168;4.112;2023-07-29T02:51:50;1.95;;;1.50;;
23142;SDS011;11740;51.168;4.112;2023-07-29T02:54:16;2.42;;;1.80;;
23142;SDS011;11740;51.168;4.112;2023-07-29T02:56:43;2.85;;;1.77;;
23142;SDS011;11740;51.168;4.112;2023-07-29T02:59:10;3.45;;;2.13;;
23142;SDS011;11740;51.168;4.112;2023-07-29T03:01:37;2.85;;;2.00;;
23142;SDS011;11740;51.168;4.112;2023-07-29T03:04:04;2.63;;;1.70;;
23142;SDS011;11740;51.168;4.112;2023-07-29T03:06:31;3.85;;;1.80;;
23142;SDS011;11740;51.168;4.112;2023-07-29T03:08:58;2.65;;;1.70;;
23142;SDS011;11740;51.168;4.112;2023-07-29T03:11:25;2.70;;;1.88;;
23142;SDS011;11740;51.168;4.112;2023-07-29T03:13:52;2.30;;;2.10;;
23142;SDS011;11740;51.168;4.112;2023-07-29T03:16:18;3.05;;;2.08;;
23142;SDS011;11740;51.168;4.112;2023-07-29T03:18:47;3.58;;;1.92;;
23142;SDS011;11740;51.168;4.112;2023-07-29T03:21:15;2.83;;;2.08;;
23142;SDS011;11740;51.168;4.112;2023-07-29T03:23:42;2.78;;;2.05;;
23142;SDS011;11740;51.168;4.112;2023-07-29T03:26:09;3.03;;;1.98;;
23142;SDS011;11740;51.168;4.112;2023-07-29T03:28:37;3.95;;;2.10;;
23142;SDS011;11740;51.168;4.112;2023-07-29T03:31:09;2.60;;;2.00;;
23142;SDS011;11740;51.168;4.112;2023-07-29T03:33:37;3.75;;;2.85;;
23142;SDS011;11740;51.168;4.112;2023-07-29T03:36:04;4.88;;;2.30;;
23142;SDS011;11740;51.168;4.112;2023-07-29T03:38:31;3.38;;;2.00;;
23142;SDS011;11740;51.168;4.112;2023-07-29T03:41:01;4.18;;;2.00;;
23142;SDS011;11740;51.168;4.112;2023-07-29T03:43:29;3.78;;;1.70;;
23142;SDS011;11740;51.168;4.112;2023-07-29T03:45:56;3.78;;;2.10;;
23142;SDS011;11740;51.168;4.112;2023-07-29T03:48:23;5.15;;;2.25;;
23142;SDS011;11740;51.168;4.112;2023-07-29T03:50:50;2.00;;;1.80;;
23142;SDS011;11740;51.168;4.112;2023-07-29T03:53:17;3.00;;;1.80;;
23142;SDS011;11740;51.168;4.112;2023-07-29T03:55:43;3.45;;;2.05;;
23142;SDS011;11740;51.168;4.112;2023-07-29T03:58:11;4.28;;;2.00;;
23142;SDS011;11740;51.168;4.112;2023-07-29T04:00:38;3.38;;;2.03;;
23142;SDS011;11740;51.168;4.112;2023-07-29T04:03:05;2.60;;;1.95;;
23142;SDS011;11740;51.168;4.112;2023-07-29T04:05:32;4.57;;;2.22;;
23142;SDS011;11740;51.168;4.112;2023-07-29T04:07:59;5.03;;;2.08;;
23142;SDS011;11740;51.168;4.112;2023-07-29T04:10:26;2.13;;;1.88;;
23142;SDS011;11740;51.168;4.112;2023-07-29T04:12:53;4.80;;;2.10;;
23142;SDS011;11740;51.168;4.112;2023-07-29T04:15:20;3.60;;;1.92;;
23142;SDS011;11740;51.168;4.112;2023-07-29T04:17:47;4.10;;;2.30;;
23142;SDS011;11740;51.168;4.112;2023-07-29T04:20:14;3.15;;;2.03;;
23142;SDS011;11740;51.168;4.112;2023-07-29T04:22:41;3.95;;;2.10;;
23142;SDS011;11740;51.168;4.112;2023-07-29T04:25:08;3.75;;;2.15;;
23142;SDS011;11740;51.168;4.112;2023-07-29T04:27:35;3.55;;;2.28;;
23142;SDS011;11740;51.168;4.112;2023-07-29T04:30:02;2.22;;;1.83;;
23142;SDS011;11740;51.168;4.112;2023-07-29T04:32:29;3.67;;;2.00;;
23142;SDS011;11740;51.168;4.112;2023-07-29T04:34:56;4.13;;;1.75;;
23142;SDS011;11740;51.168;4.112;2023-07-29T04:37:23;2.53;;;1.90;;
23142;SDS011;11740;51.168;4.112;2023-07-29T04:39:50;2.47;;;2.00;;
23142;SDS011;11740;51.168;4.112;2023-07-29T04:42:17;5.18;;;2.17;;
23142;SDS011;11740;51.168;4.112;2023-07-29T04:44:44;3.03;;;1.63;;
23142;SDS011;11740;51.168;4.112;2023-07-29T04:47:11;3.53;;;1.85;;
23142;SDS011;11740;51.168;4.112;2023-07-29T04:49:37;1.88;;;1.70;;
23142;SDS011;11740;51.168;4.112;2023-07-29T04:52:04;2.67;;;1.80;;
23142;SDS011;11740;51.168;4.112;2023-07-29T04:54:32;4.25;;;1.77;;
23142;SDS011;11740;51.168;4.112;2023-07-29T04:56:59;2.22;;;1.98;;
23142;SDS011;11740;51.168;4.112;2023-07-29T04:59:26;2.35;;;1.65;;
23142;SDS011;11740;51.168;4.112;2023-07-29T05:01:53;3.38;;;2.05;;
23142;SDS011;11740;51.168;4.112;2023-07-29T05:04:20;3.55;;;1.98;;
23142;SDS011;11740;51.168;4.112;2023-07-29T05:06:47;3.90;;;2.15;;
23142;SDS011;11740;51.168;4.112;2023-07-29T05:09:15;3.28;;;1.90;;
23142;SDS011;11740;51.168;4.112;2023-07-29T05:11:44;4.00;;;2.10;;
23142;SDS011;11740;51.168;4.112;2023-07-29T05:14:12;2.47;;;1.80;;
23142;SDS011;11740;51.168;4.112;2023-07-29T05:16:40;5.03;;;1.95;;
23142;SDS011;11740;51.168;4.112;2023-07-29T05:19:07;4.30;;;2.00;;
23142;SDS011;11740;51.168;4.112;2023-07-29T05:21:34;3.28;;;1.85;;
23142;SDS011;11740;51.168;4.112;2023-07-29T05:24:03;3.65;;;1.55;;
23142;SDS011;11740;51.168;4.112;2023-07-29T05:26:30;1.98;;;1.70;;
23142;SDS011;11740;51.168;4.112;2023-07-29T05:28:57;2.50;;;1.80;;
23142;SDS011;11740;51.168;4.112;2023-07-29T05:31:24;1.92;;;1.63;;
23142;SDS011;11740;51.168;4.112;2023-07-29T05:33:51;2.63;;;1.60;;
23142;SDS011;11740;51.168;4.112;2023-07-29T05:36:18;3.60;;;2.25;;
23142;SDS011;11740;51.168;4.112;2023-07-29T05:38:45;3.53;;;2.20;;
23142;SDS011;11740;51.168;4.112;2023-07-29T05:41:12;2.75;;;1.90;;
23142;SDS011;11740;51.168;4.112;2023-07-29T05:43:39;1.92;;;1.60;;
23142;SDS011;11740;51.168;4.112;2023-07-29T05:46:06;2.05;;;1.80;;
23142;SDS011;11740;51.168;4.112;2023-07-29T05:48:33;2.65;;;1.60;;
23142;SDS011;11740;51.168;4.112;2023-07-29T05:51:00;5.18;;;2.00;;
23142;SDS011;11740;51.168;4.112;2023-07-29T05:53:27;3.45;;;1.88;;
23142;SDS011;11740;51.168;4.112;2023-07-29T05:55:54;1.83;;;1.60;;
23142;SDS011;11740;51.168;4.112;2023-07-29T05:58:21;4.53;;;2.08;;
23142;SDS011;11740;51.168;4.112;2023-07-29T06:00:48;2.20;;;1.50;;
23142;SDS011;11740;51.168;4.112;2023-07-29T06:03:15;2.25;;;1.40;;
23142;SDS011;11740;51.168;4.112;2023-07-29T06:05:42;3.72;;;1.73;;
23142;SDS011;11740;51.168;4.112;2023-07-29T06:08:09;3.33;;;1.30;;
23142;SDS011;11740;51.168;4.112;2023-07-29T06:10:38;4.18;;;1.75;;
23142;SDS011;11740;51.168;4.112;2023-07-29T06:13:04;2.03;;;1.80;;
23142;SDS011;11740;51.168;4.112;2023-07-29T06:15:32;2.05;;;1.38;;
23142;SDS011;11740;51.168;4.112;2023-07-29T06:17:59;1.60;;;1.33;;
23142;SDS011;11740;51.168;4.112;2023-07-29T06:20:26;2.20;;;1.40;;
23142;SDS011;11740;51.168;4.112;2023-07-29T06:22:53;3.92;;;1.60;;
23142;SDS011;11740;51.168;4.112;2023-07-29T06:25:20;2.33;;;1.50;;
23142;SDS011;11740;51.168;4.112;2023-07-29T06:27:47;1.88;;;1.40;;
23142;SDS011;11740;51.168;4.112;2023-07-29T06:30:14;2.55;;;1.45;;
23142;SDS011;11740;51.168;4.112;2023-07-29T06:32:41;1.80;;;1.50;;
23142;SDS011;11740;51.168;4.112;2023-07-29T06:35:08;1.42;;;1.33;;
23142;SDS011;11740;51.168;4.112;2023-07-29T06:37:35;1.73;;;1.48;;
23142;SDS011;11740;51.168;4.112;2023-07-29T06:40:02;1.92;;;1.50;;
23142;SDS011;11740;51.168;4.112;2023-07-29T06:42:29;2.22;;;1.73;;
23142;SDS011;11740;51.168;4.112;2023-07-29T06:44:56;2.30;;;1.90;;
23142;SDS011;11740;51.168;4.112;2023-07-29T06:47:23;5.15;;;2.00;;
23142;SDS011;11740;51.168;4.112;2023-07-29T06:49:50;2.85;;;1.63;;
23142;SDS011;11740;51.168;4.112;2023-07-29T06:52:17;2.97;;;1.70;;
23142;SDS011;11740;51.168;4.112;2023-07-29T06:54:44;2.15;;;1.63;;
23142;SDS011;11740;51.168;4.112;2023-07-29T06:57:10;1.98;;;1.50;;
23142;SDS011;11740;51.168;4.112;2023-07-29T06:59:37;2.97;;;1.60;;
23142;SDS011;11740;51.168;4.112;2023-07-29T07:02:05;7.53;;;1.90;;
23142;SDS011;11740;51.168;4.112;2023-07-29T07:04:33;2.08;;;1.42;;
23142;SDS011;11740;51.168;4.112;2023-07-29T07:07:00;4.53;;;1.45;;
23142;SDS011;11740;51.168;4.112;2023-07-29T07:09:26;1.63;;;1.52;;
23142;SDS011;11740;51.168;4.112;2023-07-29T07:11:53;3.15;;;1.67;;
23142;SDS011;11740;51.168;4.112;2023-07-29T07:14:20;5.45;;;1.33;;
23142;SDS011;11740;51.168;4.112;2023-07-29T07:16:47;3.90;;;1.35;;
23142;SDS011;11740;51.168;4.112;2023-07-29T07:19:14;3.25;;;1.50;;
23142;SDS011;11740;51.168;4.112;2023-07-29T07:21:41;2.97;;;1.63;;
23142;SDS011;11740;51.168;4.112;2023-07-29T07:24:08;3.40;;;1.63;;
23142;SDS011;11740;51.168;4.112;2023-07-29T07:26:35;2.28;;;1.30;;
23142;SDS011;11740;51.168;4.112;2023-07-29T07:29:02;2.13;;;1.42;;
23142;SDS011;11740;51.168;4.112;2023-07-29T07:31:32;4.78;;;1.65;;
23142;SDS011;11740;51.168;4.112;2023-07-29T07:34:00;3.13;;;1.30;;
23142;SDS011;11740;51.168;4.112;2023-07-29T07:36:29;2.65;;;1.55;;
23142;SDS011;11740;51.168;4.112;2023-07-29T07:38:56;2.60;;;1.45;;
23142;SDS011;11740;51.168;4.112;2023-07-29T07:41:23;2.97;;;1.30;;
23142;SDS011;11740;51.168;4.112;2023-07-29T07:43:50;1.85;;;1.40;;
23142;SDS011;11740;51.168;4.112;2023-07-29T07:46:17;2.05;;;1.42;;
23142;SDS011;11740;51.168;4.112;2023-07-29T07:48:44;2.55;;;1.10;;
23142;SDS011;11740;51.168;4.112;2023-07-29T07:51:11;2.35;;;1.15;;
23142;SDS011;11740;51.168;4.112;2023-07-29T07:53:39;2.60;;;1.25;;
23142;SDS011;11740;51.168;4.112;2023-07-29T07:56:06;2.13;;;1.42;;
23142;SDS011;11740;51.168;4.112;2023-07-29T07:58:33;2.78;;;1.33;;
23142;SDS011;11740;51.168;4.112;2023-07-29T08:01:01;2.95;;;1.40;;
23142;SDS011;11740;51.168;4.112;2023-07-29T08:03:34;2.67;;;1.13;;
23142;SDS011;11740;51.168;4.112;2023-07-29T08:06:02;1.13;;;1.02;;
23142;SDS011;11740;51.168;4.112;2023-07-29T08:08:29;2.88;;;1.38;;
23142;SDS011;11740;51.168;4.112;2023-07-29T08:10:56;1.50;;;1.10;;
23142;SDS011;11740;51.168;4.112;2023-07-29T08:13:24;1.70;;;1.10;;
23142;SDS011;11740;51.168;4.112;2023-07-29T08:15:51;1.48;;;1.30;;
23142;SDS011;11740;51.168;4.112;2023-07-29T08:18:19;1.70;;;1.30;;
23142;SDS011;11740;51.168;4.112;2023-07-29T08:20:57;1.67;;;1.30;;
23142;SDS011;11740;51.168;4.112;2023-07-29T08:23:32;3.65;;;1.30;;
23142;SDS011;11740;51.168;4.112;2023-07-29T08:26:03;2.38;;;1.45;;
23142;SDS011;11740;51.168;4.112;2023-07-29T08:28:34;2.70;;;1.35;;
23142;SDS011;11740;51.168;4.112;2023-07-29T08:31:03;1.95;;;1.42;;
23142;SDS011;11740;51.168;4.112;2023-07-29T08:33:33;3.20;;;1.27;;
23142;SDS011;11740;51.168;4.112;2023-07-29T08:36:01;2.72;;;1.40;;
23142;SDS011;11740;51.168;4.112;2023-07-29T08:38:29;1.58;;;1.30;;
23142;SDS011;11740;51.168;4.112;2023-07-29T08:43:41;3.85;;;1.63;;
23142;SDS011;11740;51.168;4.112;2023-07-29T08:46:20;1.70;;;1.27;;
23142;SDS011;11740;51.168;4.112;2023-07-29T08:48:47;1.83;;;1.60;;
23142;SDS011;11740;51.168;4.112;2023-07-29T08:51:14;1.90;;;1.40;;
23142;SDS011;11740;51.168;4.112;2023-07-29T08:53:43;4.50;;;1.60;;
23142;SDS011;11740;51.168;4.112;2023-07-29T08:56:10;2.55;;;1.90;;
23142;SDS011;11740;51.168;4.112;2023-07-29T08:58:38;2.15;;;1.60;;
23142;SDS011;11740;51.168;4.112;2023-07-29T09:01:06;3.60;;;2.00;;
23142;SDS011;11740;51.168;4.112;2023-07-29T09:03:33;3.47;;;1.90;;
23142;SDS011;11740;51.168;4.112;2023-07-29T09:06:00;3.08;;;1.80;;
23142;SDS011;11740;51.168;4.112;2023-07-29T09:08:29;3.90;;;2.00;;
23142;SDS011;11740;51.168;4.112;2023-07-29T09:10:57;5.47;;;1.70;;
23142;SDS011;11740;51.168;4.112;2023-07-29T09:13:24;3.63;;;1.95;;
23142;SDS011;11740;51.168;4.112;2023-07-29T09:15:54;2.38;;;1.77;;
23142;SDS011;11740;51.168;4.112;2023-07-29T09:18:22;3.00;;;1.80;;
23142;SDS011;11740;51.168;4.112;2023-07-29T09:20:52;2.40;;;1.58;;
23142;SDS011;11740;51.168;4.112;2023-07-29T09:23:19;1.73;;;1.60;;
23142;SDS011;11740;51.168;4.112;2023-07-29T09:25:47;2.30;;;1.63;;
23142;SDS011;11740;51.168;4.112;2023-07-29T09:28:14;1.65;;;1.52;;
23142;SDS011;11740;51.168;4.112;2023-07-29T09:30:44;4.00;;;1.60;;
23142;SDS011;11740;51.168;4.112;2023-07-29T09:33:13;2.70;;;1.67;;
23142;SDS011;11740;51.168;4.112;2023-07-29T09:35:40;1.70;;;1.60;;
23142;SDS011;11740;51.168;4.112;2023-07-29T09:38:08;3.80;;;1.70;;
23142;SDS011;11740;51.168;4.112;2023-07-29T09:40:41;1.92;;;1.48;;
23142;SDS011;11740;51.168;4.112;2023-07-29T09:43:08;1.67;;;1.58;;
23142;SDS011;11740;51.168;4.112;2023-07-29T09:45:36;1.67;;;1.48;;
23142;SDS011;11740;51.168;4.112;2023-07-29T09:48:04;6.43;;;1.63;;
23142;SDS011;11740;51.168;4.112;2023-07-29T09:50:36;4.97;;;1.70;;
23142;SDS011;11740;51.168;4.112;2023-07-29T09:53:03;2.95;;;1.50;;
23142;SDS011;11740;51.168;4.112;2023-07-29T09:55:32;1.70;;;1.60;;
23142;SDS011;11740;51.168;4.112;2023-07-29T09:58:00;2.28;;;1.80;;
23142;SDS011;11740;51.168;4.112;2023-07-29T10:00:30;1.85;;;1.38;;
23142;SDS011;11740;51.168;4.112;2023-07-29T10:02:58;1.75;;;1.48;;
23142;SDS011;11740;51.168;4.112;2023-07-29T10:05:27;1.90;;;1.50;;
23142;SDS011;11740;51.168;4.112;2023-07-29T10:07:56;2.70;;;1.80;;
23142;SDS011;11740;51.168;4.112;2023-07-29T10:10:23;5.43;;;1.70;;
23142;SDS011;11740;51.168;4.112;2023-07-29T10:12:50;2.90;;;1.63;;
23142;SDS011;11740;51.168;4.112;2023-07-29T10:15:18;1.92;;;1.50;;
23142;SDS011;11740;51.168;4.112;2023-07-29T10:17:45;1.90;;;1.70;;
23142;SDS011;11740;51.168;4.112;2023-07-29T10:20:15;1.60;;;1.17;;
23142;SDS011;11740;51.168;4.112;2023-07-29T10:22:43;5.72;;;1.48;;
23142;SDS011;11740;51.168;4.112;2023-07-29T10:25:18;3.28;;;1.50;;
23142;SDS011;11740;51.168;4.112;2023-07-29T10:28:02;1.70;;;1.58;;
23142;SDS011;11740;51.168;4.112;2023-07-29T10:30:32;4.15;;;1.75;;
23142;SDS011;11740;51.168;4.112;2023-07-29T10:33:03;2.72;;;1.50;;
23142;SDS011;11740;51.168;4.112;2023-07-29T10:35:33;3.33;;;1.80;;
23142;SDS011;11740;51.168;4.112;2023-07-29T10:38:01;3.35;;;1.85;;
23142;SDS011;11740;51.168;4.112;2023-07-29T10:40:47;1.95;;;1.40;;
23142;SDS011;11740;51.168;4.112;2023-07-29T10:43:28;4.93;;;1.80;;
23142;SDS011;11740;51.168;4.112;2023-07-29T10:46:14;3.53;;;1.90;;
23142;SDS011;11740;51.168;4.112;2023-07-29T10:48:53;4.55;;;2.08;;
23142;SDS011;11740;51.168;4.112;2023-07-29T10:51:35;5.93;;;1.88;;
23142;SDS011;11740;51.168;4.112;2023-07-29T10:54:11;11.50;;;3.53;;
23142;SDS011;11740;51.168;4.112;2023-07-29T10:56:49;9.98;;;2.70;;
23142;SDS011;11740;51.168;4.112;2023-07-29T11:01:53;11.98;;;3.30;;
23142;SDS011;11740;51.168;4.112;2023-07-29T11:04:25;11.48;;;2.75;;
23142;SDS011;11740;51.168;4.112;2023-07-29T11:12:34;5.70;;;1.90;;
23142;SDS011;11740;51.168;4.112;2023-07-29T11:17:41;4.43;;;2.55;;
23142;SDS011;11740;51.168;4.112;2023-07-29T11:20:15;7.15;;;2.63;;
23142;SDS011;11740;51.168;4.112;2023-07-29T11:22:45;4.13;;;2.53;;
23142;SDS011;11740;51.168;4.112;2023-07-29T11:25:13;2.78;;;2.05;;
23142;SDS011;11740;51.168;4.112;2023-07-29T11:27:42;3.67;;;1.60;;
23142;SDS011;11740;51.168;4.112;2023-07-29T11:30:11;2.05;;;1.30;;
23142;SDS011;11740;51.168;4.112;2023-07-29T11:32:40;2.17;;;1.10;;
23142;SDS011;11740;51.168;4.112;2023-07-29T11:35:11;1.15;;;1.05;;
23142;SDS011;11740;51.168;4.112;2023-07-29T11:37:41;1.95;;;0.98;;
23142;SDS011;11740;51.168;4.112;2023-07-29T11:40:15;2.30;;;1.08;;
23142;SDS011;11740;51.168;4.112;2023-07-29T11:42:47;1.25;;;0.93;;
23142;SDS011;11740;51.168;4.112;2023-07-29T11:45:19;2.08;;;0.70;;
23142;SDS011;11740;51.168;4.112;2023-07-29T11:47:57;1.13;;;0.90;;
23142;SDS011;11740;51.168;4.112;2023-07-29T11:50:24;0.90;;;0.77;;
23142;SDS011;11740;51.168;4.112;2023-07-29T11:52:52;3.75;;;1.00;;
23142;SDS011;11740;51.168;4.112;2023-07-29T11:55:19;2.05;;;0.85;;
23142;SDS011;11740;51.168;4.112;2023-07-29T11:57:46;1.45;;;0.82;;
23142;SDS011;11740;51.168;4.112;2023-07-29T12:00:18;2.10;;;1.02;;
23142;SDS011;11740;51.168;4.112;2023-07-29T12:02:47;2.08;;;0.98;;
23142;SDS011;11740;51.168;4.112;2023-07-29T12:05:16;2.53;;;1.25;;
23142;SDS011;11740;51.168;4.112;2023-07-29T12:07:45;1.38;;;1.13;;
23142;SDS011;11740;51.168;4.112;2023-07-29T12:10:12;1.20;;;1.10;;
23142;SDS011;11740;51.168;4.112;2023-07-29T12:12:49;3.03;;;1.20;;
23142;SDS011;11740;51.168;4.112;2023-07-29T12:15:23;2.50;;;1.30;;
23142;SDS011;11740;51.168;4.112;2023-07-29T12:17:55;2.13;;;1.20;;
23142;SDS011;11740;51.168;4.112;2023-07-29T12:20:24;1.25;;;1.00;;
23142;SDS011;11740;51.168;4.112;2023-07-29T12:22:53;2.53;;;1.30;;
23142;SDS011;11740;51.168;4.112;2023-07-29T12:25:21;1.52;;;1.20;;
23142;SDS011;11740;51.168;4.112;2023-07-29T12:27:49;2.05;;;1.15;;
23142;SDS011;11740;51.168;4.112;2023-07-29T12:30:19;1.92;;;1.27;;
23142;SDS011;11740;51.168;4.112;2023-07-29T12:32:48;2.15;;;1.30;;
23142;SDS011;11740;51.168;4.112;2023-07-29T12:35:15;1.38;;;1.20;;
23142;SDS011;11740;51.168;4.112;2023-07-29T12:37:42;1.40;;;1.20;;
23142;SDS011;11740;51.168;4.112;2023-07-29T12:42:52;4.18;;;1.40;;
23142;SDS011;11740;51.168;4.112;2023-07-29T12:45:20;2.25;;;1.27;;
23142;SDS011;11740;51.168;4.112;2023-07-29T12:47:50;2.00;;;1.42;;
23142;SDS011;11740;51.168;4.112;2023-07-29T12:50:17;2.70;;;1.52;;
23142;SDS011;11740;51.168;4.112;2023-07-29T12:52:44;1.67;;;1.17;;
23142;SDS011;11740;51.168;4.112;2023-07-29T12:55:11;1.92;;;1.35;;
23142;SDS011;11740;51.168;4.112;2023-07-29T12:57:41;2.30;;;1.40;;
23142;SDS011;11740;51.168;4.112;2023-07-29T13:00:10;3.53;;;1.15;;
23142;SDS011;11740;51.168;4.112;2023-07-29T13:02:37;6.00;;;1.90;;
23142;SDS011;11740;51.168;4.112;2023-07-29T13:05:04;4.18;;;1.45;;
23142;SDS011;11740;51.168;4.112;2023-07-29T13:07:32;3.40;;;1.20;;
23142;SDS011;11740;51.168;4.112;2023-07-29T13:09:59;1.77;;;1.10;;
23142;SDS011;11740;51.168;4.112;2023-07-29T13:12:26;1.48;;;1.23;;
23142;SDS011;11740;51.168;4.112;2023-07-29T13:14:54;1.85;;;1.10;;
23142;SDS011;11740;51.168;4.112;2023-07-29T13:17:21;2.35;;;1.38;;
23142;SDS011;11740;51.168;4.112;2023-07-29T13:19:49;1.70;;;1.00;;
23142;SDS011;11740;51.168;4.112;2023-07-29T13:22:16;2.60;;;1.35;;
23142;SDS011;11740;51.168;4.112;2023-07-29T13:24:44;4.43;;;1.20;;
23142;SDS011;11740;51.168;4.112;2023-07-29T13:27:10;1.48;;;0.98;;
23142;SDS011;11740;51.168;4.112;2023-07-29T13:29:38;3.03;;;1.10;;
23142;SDS011;11740;51.168;4.112;2023-07-29T13:32:06;1.20;;;1.10;;
23142;SDS011;11740;51.168;4.112;2023-07-29T13:34:34;2.53;;;1.42;;
23142;SDS011;11740;51.168;4.112;2023-07-29T13:37:01;2.20;;;1.17;;
23142;SDS011;11740;51.168;4.112;2023-07-29T13:39:28;2.40;;;1.20;;
23142;SDS011;11740;51.168;4.112;2023-07-29T13:41:55;1.90;;;1.30;;
23142;SDS011;11740;51.168;4.112;2023-07-29T13:44:22;1.70;;;1.20;;
23142;SDS011;11740;51.168;4.112;2023-07-29T13:46:49;3.38;;;1.20;;
23142;SDS011;11740;51.168;4.112;2023-07-29T13:49:16;2.88;;;1.20;;
23142;SDS011;11740;51.168;4.112;2023-07-29T13:51:43;2.95;;;1.05;;
23142;SDS011;11740;51.168;4.112;2023-07-29T13:54:11;2.38;;;1.30;;
23142;SDS011;11740;51.168;4.112;2023-07-29T13:56:38;1.05;;;1.02;;
23142;SDS011;11740;51.168;4.112;2023-07-29T13:59:05;1.10;;;1.00;;
23142;SDS011;11740;51.168;4.112;2023-07-29T14:01:32;2.92;;;1.17;;
23142;SDS011;11740;51.168;4.112;2023-07-29T14:03:59;2.17;;;1.50;;
23142;SDS011;11740;51.168;4.112;2023-07-29T14:06:26;2.10;;;1.20;;
23142;SDS011;11740;51.168;4.112;2023-07-29T14:09:11;2.42;;;1.35;;
23142;SDS011;11740;51.168;4.112;2023-07-29T14:11:38;1.45;;;1.00;;
23142;SDS011;11740;51.168;4.112;2023-07-29T14:14:05;2.97;;;1.20;;
23142;SDS011;11740;51.168;4.112;2023-07-29T14:16:33;3.95;;;1.40;;
23142;SDS011;11740;51.168;4.112;2023-07-29T14:19:01;2.45;;;1.25;;
23142;SDS011;11740;51.168;4.112;2023-07-29T14:21:29;1.73;;;1.10;;
23142;SDS011;11740;51.168;4.112;2023-07-29T14:23:56;1.48;;;0.90;;
23142;SDS011;11740;51.168;4.112;2023-07-29T14:26:23;2.10;;;1.10;;
23142;SDS011;11740;51.168;4.112;2023-07-29T14:28:50;2.58;;;1.10;;
23142;SDS011;11740;51.168;4.112;2023-07-29T14:31:17;1.20;;;1.00;;
23142;SDS011;11740;51.168;4.112;2023-07-29T14:33:44;1.08;;;0.88;;
23142;SDS011;11740;51.168;4.112;2023-07-29T14:36:11;0.80;;;0.80;;
23142;SDS011;11740;51.168;4.112;2023-07-29T14:38:38;1.00;;;0.90;;
23142;SDS011;11740;51.168;4.112;2023-07-29T14:41:05;3.40;;;0.80;;
23142;SDS011;11740;51.168;4.112;2023-07-29T14:43:32;1.52;;;0.90;;
23142;SDS011;11740;51.168;4.112;2023-07-29T14:46:00;1.35;;;0.90;;
23142;SDS011;11740;51.168;4.112;2023-07-29T14:48:29;0.85;;;0.85;;
23142;SDS011;11740;51.168;4.112;2023-07-29T14:50:56;2.25;;;1.00;;
23142;SDS011;11740;51.168;4.112;2023-07-29T14:53:23;1.95;;;0.90;;
23142;SDS011;11740;51.168;4.112;2023-07-29T14:55:50;0.90;;;0.90;;
23142;SDS011;11740;51.168;4.112;2023-07-29T14:58:17;1.17;;;0.82;;
23142;SDS011;11740;51.168;4.112;2023-07-29T15:00:44;2.45;;;0.70;;
23142;SDS011;11740;51.168;4.112;2023-07-29T15:03:11;0.80;;;0.80;;
23142;SDS011;11740;51.168;4.112;2023-07-29T15:05:38;1.35;;;0.90;;
23142;SDS011;11740;51.168;4.112;2023-07-29T15:08:07;1.38;;;0.80;;
23142;SDS011;11740;51.168;4.112;2023-07-29T15:10:34;1.63;;;0.90;;
23142;SDS011;11740;51.168;4.112;2023-07-29T15:13:01;0.90;;;0.70;;
23142;SDS011;11740;51.168;4.112;2023-07-29T15:15:29;0.70;;;0.70;;